createdAt,value
2019-03-31T00:02:18.322Z,22.70
2019-03-31T00:07:07.176Z,24.40
2019-03-31T00:11:59.027Z,25.80
2019-03-31T00:16:52.958Z,23.30
2019-03-31T00:21:44.542Z,24.80
2019-03-31T00:26:36.570Z,25.00
2019-03-31T00:31:31.575Z,27.00
2019-03-31T00:36:22.688Z,22.20
2019-03-31T00:41:15.626Z,25.00
2019-03-31T00:46:07.252Z,25.90
2019-03-31T00:50:59.056Z,25.00
2019-03-31T00:55:50.947Z,25.30
2019-03-31T01:00:43.054Z,26.30
2019-03-31T01:05:35.927Z,26.50
2019-03-31T01:10:30.184Z,28.70
2019-03-31T01:15:21.761Z,26.30
2019-03-31T01:20:14.107Z,27.30
2019-03-31T01:25:04.202Z,31.00
2019-03-31T01:29:56.466Z,26.40
2019-03-31T01:34:50.331Z,29.40
2019-03-31T01:45:34.343Z,43.60
2019-03-31T01:50:26.727Z,32.70
2019-03-31T01:55:26.046Z,32.20
2019-03-31T02:00:15.938Z,31.10
2019-03-31T02:05:08.213Z,26.10
2019-03-31T02:09:58.019Z,29.80
2019-03-31T02:14:48.134Z,29.40
2019-03-31T02:19:38.958Z,30.20
2019-03-31T02:24:28.900Z,30.40
2019-03-31T02:29:20.210Z,32.20
2019-03-31T02:34:09.963Z,32.90
2019-03-31T02:39:00.162Z,31.00
2019-03-31T02:43:50.090Z,30.10
2019-03-31T02:48:40.186Z,28.40
2019-03-31T02:53:30.283Z,30.30
2019-03-31T02:58:20.232Z,29.50
2019-03-31T03:03:10.478Z,29.40
2019-03-31T03:08:00.402Z,30.20
2019-03-31T03:12:50.354Z,33.20
2019-03-31T03:17:42.453Z,30.30
2019-03-31T03:22:32.349Z,34.50
2019-03-31T03:27:22.435Z,31.00
2019-03-31T03:32:12.544Z,33.80
2019-03-31T03:37:01.233Z,33.40
2019-03-31T03:41:50.980Z,34.20
2019-03-31T03:46:40.706Z,30.30
2019-03-31T03:51:30.068Z,32.00
2019-03-31T03:56:20.037Z,33.30
2019-03-31T04:01:12.141Z,33.50
2019-03-31T04:06:02.990Z,33.10
2019-03-31T04:10:55.078Z,32.70
2019-03-31T04:15:47.132Z,33.40
2019-03-31T04:20:40.056Z,33.00
2019-03-31T04:25:32.030Z,32.30
2019-03-31T04:30:24.151Z,32.50
2019-03-31T04:35:15.977Z,35.10
2019-03-31T04:40:07.743Z,36.20
2019-03-31T04:44:58.989Z,33.30
2019-03-31T04:49:49.288Z,33.60
2019-03-31T04:54:39.895Z,32.90
2019-03-31T04:59:29.808Z,35.20
2019-03-31T05:04:19.972Z,34.70
2019-03-31T05:09:11.273Z,35.80
2019-03-31T05:14:03.231Z,32.90
2019-03-31T05:18:52.912Z,30.80
2019-03-31T05:23:42.053Z,30.70
2019-03-31T05:28:34.276Z,29.90
2019-03-31T05:33:24.101Z,27.40
2019-03-31T05:38:16.085Z,22.90
2019-03-31T05:43:10.085Z,31.00
2019-03-31T05:48:00.214Z,27.50
2019-03-31T05:52:50.282Z,28.50
2019-03-31T05:57:40.310Z,26.80
2019-03-31T06:02:30.955Z,21.60
2019-03-31T06:07:25.221Z,23.70
2019-03-31T06:12:14.803Z,22.80
2019-03-31T06:17:04.386Z,22.80
2019-03-31T06:21:53.798Z,18.90
2019-03-31T06:26:43.682Z,21.40
2019-03-31T06:31:33.852Z,19.90
2019-03-31T06:36:23.448Z,21.30
2019-03-31T06:41:11.731Z,24.10
2019-03-31T06:46:01.904Z,23.40
2019-03-31T06:50:51.883Z,21.30
2019-03-31T06:55:43.803Z,23.00
2019-03-31T07:00:35.871Z,21.70
2019-03-31T07:05:27.823Z,20.10
2019-03-31T07:10:19.925Z,18.70
2019-03-31T07:15:11.218Z,18.70
2019-03-31T07:20:03.475Z,19.50
2019-03-31T07:24:55.444Z,16.90
2019-03-31T07:29:46.926Z,16.40
2019-03-31T07:34:38.410Z,18.10
2019-03-31T07:39:29.548Z,18.90
2019-03-31T07:44:22.077Z,19.70
2019-03-31T07:49:13.829Z,18.00
2019-03-31T07:54:04.805Z,18.60
2019-03-31T07:58:56.355Z,18.20
2019-03-31T08:03:45.907Z,23.30
2019-03-31T08:08:37.095Z,21.00
2019-03-31T08:13:26.824Z,20.90
2019-03-31T08:18:16.496Z,19.80
2019-03-31T08:23:05.746Z,20.20
2019-03-31T08:27:55.626Z,21.50
2019-03-31T08:32:46.017Z,20.20
2019-03-31T08:37:36.617Z,17.40
2019-03-31T08:42:27.728Z,15.90
2019-03-31T08:47:17.228Z,17.40
2019-03-31T08:52:07.533Z,19.20
2019-03-31T08:56:57.963Z,16.20
2019-03-31T09:01:49.368Z,12.40
2019-03-31T09:06:42.232Z,18.30
2019-03-31T09:11:33.196Z,13.50
2019-03-31T09:16:24.367Z,13.70
2019-03-31T09:21:15.491Z,13.60
2019-03-31T09:26:06.642Z,14.70
2019-03-31T09:30:57.283Z,12.90
2019-03-31T09:35:47.901Z,14.70
2019-03-31T09:40:38.679Z,13.40
2019-03-31T09:45:29.800Z,13.90
2019-03-31T09:50:20.531Z,13.10
2019-03-31T09:55:10.748Z,13.40
2019-03-31T10:00:02.766Z,13.90
2019-03-31T10:04:54.573Z,13.70
2019-03-31T10:09:45.079Z,10.60
2019-03-31T10:14:36.665Z,13.10
2019-03-31T10:19:28.338Z,16.60
2019-03-31T10:24:19.139Z,12.50
2019-03-31T10:29:09.495Z,12.40
2019-03-31T10:34:00.162Z,11.40
2019-03-31T10:38:52.218Z,12.00
2019-03-31T10:43:43.273Z,13.10
2019-03-31T10:48:33.789Z,13.40
2019-03-31T10:53:24.758Z,11.80
2019-03-31T10:58:16.083Z,10.40
2019-03-31T11:03:08.154Z,10.70
2019-03-31T11:08:00.242Z,10.70
2019-03-31T11:12:52.299Z,9.30
2019-03-31T11:17:43.506Z,14.90
2019-03-31T11:22:35.294Z,11.90
2019-03-31T11:27:26.813Z,11.60
2019-03-31T11:32:18.329Z,11.20
2019-03-31T11:37:14.374Z,11.20
2019-03-31T11:42:04.562Z,11.20
2019-03-31T11:46:57.857Z,12.70
2019-03-31T11:51:47.712Z,11.40
2019-03-31T11:56:39.271Z,11.90
2019-03-31T12:01:30.833Z,11.60
2019-03-31T12:06:22.366Z,11.80
2019-03-31T12:11:12.690Z,11.70
2019-03-31T12:16:03.496Z,10.50
2019-03-31T12:20:53.736Z,10.60
2019-03-31T12:25:44.449Z,10.70
2019-03-31T12:30:35.046Z,9.80
2019-03-31T12:35:24.663Z,9.10
2019-03-31T12:40:15.973Z,9.30
2019-03-31T12:45:06.373Z,8.30
2019-03-31T12:49:57.973Z,8.40
2019-03-31T12:54:51.069Z,10.00
2019-03-31T12:59:43.940Z,9.10
2019-03-31T13:04:33.707Z,9.40
2019-03-31T13:09:24.924Z,8.50
2019-03-31T13:14:16.652Z,8.40
2019-03-31T13:19:07.726Z,7.60
2019-03-31T13:23:57.554Z,7.50
2019-03-31T13:28:48.371Z,7.90
2019-03-31T13:33:39.754Z,7.30
2019-03-31T13:38:30.565Z,7.10
2019-03-31T13:43:22.191Z,6.40
2019-03-31T13:48:13.577Z,7.60
2019-03-31T13:53:04.958Z,8.60
2019-03-31T13:57:59.500Z,8.70
2019-03-31T14:02:56.727Z,8.70
2019-03-31T14:07:48.651Z,10.00
2019-03-31T14:12:40.706Z,7.80
2019-03-31T14:17:30.984Z,7.40
2019-03-31T14:22:21.350Z,8.10
2019-03-31T14:27:11.641Z,6.90
2019-03-31T14:32:02.855Z,6.90
2019-03-31T14:36:53.955Z,7.40
2019-03-31T14:41:44.529Z,7.40
2019-03-31T14:46:34.374Z,7.40
2019-03-31T14:51:24.993Z,6.70
2019-03-31T14:56:17.106Z,7.10
2019-03-31T15:01:07.923Z,8.90
2019-03-31T15:05:58.412Z,7.00
2019-03-31T15:10:48.380Z,6.20
2019-03-31T15:15:39.006Z,6.10
